Time;durP1;ratioP1;P1;durP2;ratioP2;P2;SDS_P1;SDS_P2;PMS_P1;PMS_P2;Temp;Humidity;BMP_temperature;BMP_pressure;BME280_temperature;BME280_humidity;BME280_pressure;Samples;Min_cycle;Max_cycle;Signal;HPM_P1;HPM_P2
2022/05/10 00:09:35;;;;;;;4.87;3.83;;;17.20;99.90;;;;;;6714703;88;20188;-78
2022/05/10 00:19:36;;;;;;;4.45;3.67;;;17.20;99.90;;;;;;6678328;88;20320;-78
2022/05/10 00:29:36;;;;;;;8.77;4.05;;;16.80;99.90;;;;;;6692390;88;21490;-76
2022/05/10 00:39:37;;;;;;;6.12;3.87;;;16.80;99.90;;;;;;6663107;88;20659;-77
2022/05/10 00:49:52;;;;;;;6.40;3.90;;;16.90;99.90;;;;;;6657331;88;20202;-78
2022/05/10 01:00:15;;;;;;;6.60;4.00;;;16.80;99.90;;;;;;6669440;88;20228;-77
2022/05/10 01:10:25;;;;;;;6.72;4.60;;;16.90;99.90;;;;;;6655123;89;20262;-76
2022/05/10 01:20:37;;;;;;;5.82;3.87;;;16.80;99.90;;;;;;6661091;88;20699;-77
2022/05/10 01:30:38;;;;;;;5.40;4.20;;;16.80;99.90;;;;;;6664794;88;20184;-76
2022/05/10 01:40:44;;;;;;;5.30;4.25;;;16.70;99.90;;;;;;6668172;89;20190;-77
2022/05/10 01:50:57;;;;;;;5.22;4.28;;;16.70;99.90;;;;;;6674744;88;20691;-76
2022/05/10 02:01:17;;;;;;;7.30;4.45;;;16.50;99.90;;;;;;6679837;88;21015;-77
2022/05/10 02:11:18;;;;;;;6.22;4.45;;;16.40;99.90;;;;;;6692233;88;20294;-77
2022/05/10 02:21:24;;;;;;;7.62;4.32;;;16.50;99.90;;;;;;6708538;88;20648;-76
2022/05/10 02:42:04;;;;;;;7.40;4.35;;;16.30;99.90;;;;;;6695259;88;20246;-77
2022/05/10 02:52:05;;;;;;;6.85;4.37;;;16.30;99.90;;;;;;6703173;88;20287;-77
2022/05/10 03:02:13;;;;;;;5.28;4.25;;;16.40;99.90;;;;;;6687949;88;20183;-77
2022/05/10 03:12:14;;;;;;;6.20;4.28;;;16.30;99.90;;;;;;6700067;88;20250;-77
2022/05/10 03:22:15;;;;;;;6.28;4.35;;;16.30;99.90;;;;;;6721754;88;20209;-76
2022/05/10 03:32:15;;;;;;;6.82;4.37;;;16.30;99.90;;;;;;6708093;88;20254;-77
2022/05/10 03:42:16;;;;;;;6.10;4.45;;;16.00;99.90;;;;;;6677458;88;20192;-77
2022/05/10 03:52:17;;;;;;;6.85;4.93;;;16.00;99.90;;;;;;6671949;88;20196;-80
2022/05/10 04:02:18;;;;;;;9.02;4.85;;;15.90;99.90;;;;;;6683123;88;20207;-77
2022/05/10 04:12:19;;;;;;;7.87;5.18;;;15.60;99.90;;;;;;6694746;88;20177;-79
2022/05/10 04:22:19;;;;;;;7.68;5.10;;;15.40;99.90;;;;;;6682102;88;20648;-77
2022/05/10 04:32:20;;;;;;;6.90;5.78;;;15.30;99.90;;;;;;6665362;88;20938;-76
2022/05/10 04:42:20;;;;;;;11.35;6.00;;;15.30;99.90;;;;;;6679514;88;20208;-74
2022/05/10 04:52:21;;;;;;;8.03;5.90;;;15.20;99.90;;;;;;6677595;88;20271;-76
2022/05/10 05:02:21;;;;;;;8.90;5.60;;;15.30;99.90;;;;;;6670204;88;20231;-77
2022/05/10 05:12:23;;;;;;;7.50;5.37;;;15.40;99.90;;;;;;6662068;88;20205;-77
2022/05/10 05:22:23;;;;;;;8.82;5.32;;;15.50;99.90;;;;;;6650416;88;20247;-76
2022/05/10 05:32:29;;;;;;;7.12;5.28;;;15.70;99.90;;;;;;6652932;88;20243;-75
2022/05/10 05:42:30;;;;;;;7.18;5.37;;;15.90;99.90;;;;;;6651120;88;20201;-77
2022/05/10 05:52:31;;;;;;;6.30;5.10;;;16.10;99.90;;;;;;6653298;88;20227;-76
2022/05/10 06:02:32;;;;;;;9.18;6.18;;;16.40;99.90;;;;;;6654789;88;20223;-77
2022/05/10 06:12:33;;;;;;;9.65;5.07;;;16.60;99.90;;;;;;6660237;88;20981;-77
2022/05/10 06:22:34;;;;;;;10.60;5.33;;;17.00;99.90;;;;;;6636168;88;20230;-78
2022/05/10 06:32:34;;;;;;;9.63;5.47;;;17.50;99.90;;;;;;6636563;88;20926;-76
2022/05/10 06:42:35;;;;;;;11.70;5.45;;;18.00;99.90;;;;;;6639000;88;20348;-77
2022/05/10 06:52:36;;;;;;;12.20;5.25;;;18.70;99.90;;;;;;6661352;88;20217;-76
2022/05/10 07:02:37;;;;;;;9.88;4.90;;;19.40;99.90;;;;;;6651916;88;20192;-78
2022/05/10 07:12:41;;;;;;;10.10;4.72;;;19.90;99.90;;;;;;6663886;88;20201;-76
2022/05/10 07:22:41;;;;;;;10.93;4.93;;;20.30;99.90;;;;;;6638081;89;20274;-77
2022/05/10 07:32:42;;;;;;;10.13;4.53;;;20.90;99.90;;;;;;6652364;88;20245;-77
2022/05/10 07:42:42;;;;;;;9.70;4.30;;;21.60;99.90;;;;;;6657128;88;20354;-79
2022/05/10 07:52:44;;;;;;;7.25;3.90;;;22.10;99.90;;;;;;6654853;88;20204;-76
2022/05/10 08:02:45;;;;;;;4.18;3.70;;;23.00;99.90;;;;;;6654364;88;20173;-78
2022/05/10 08:12:46;;;;;;;4.82;3.67;;;24.00;97.60;;;;;;6680142;88;20203;-76
2022/05/10 08:23:28;;;;;;;5.12;3.80;;;24.20;97.40;;;;;;6646830;77;20291;-81
2022/05/10 08:33:31;;;;;;;8.43;3.78;;;24.60;95.40;;;;;;6645907;89;20201;-80
2022/05/10 08:43:34;;;;;;;;;;;25.20;94.60;;;;;;6636941;88;20200;-79
2022/05/10 08:53:35;;;;;;;6.28;3.50;;;25.40;92.70;;;;;;6634763;89;20552;-79
2022/05/10 09:03:50;;;;;;;5.65;3.20;;;25.50;93.30;;;;;;6693294;88;20211;-80
2022/05/10 09:13:53;;;;;;;6.75;3.37;;;25.70;91.90;;;;;;6724463;88;20208;-80
2022/05/10 09:24:20;;;;;;;4.68;3.00;;;26.60;90.60;;;;;;6725794;88;20213;-80
2022/05/10 09:44:40;;;;;;;5.65;2.67;;;27.10;84.20;;;;;;6729874;88;20173;-84
2022/05/10 09:54:42;;;;;;;5.15;2.58;;;28.10;80.20;;;;;;6723228;88;20202;-80
2022/05/10 10:04:45;;;;;;;4.68;2.40;;;28.60;77.10;;;;;;6722881;88;20692;-79
2022/05/10 10:14:48;;;;;;;6.37;2.37;;;28.10;72.80;;;;;;6725935;88;20225;-80
2022/05/10 10:25:04;;;;;;;4.65;2.47;;;27.90;71.20;;;;;;6724485;88;20341;-81
2022/05/10 10:35:09;;;;;;;4.15;2.90;;;28.40;70.80;;;;;;6720222;88;20743;-80
2022/05/10 10:45:12;;;;;;;3.37;2.83;;;28.80;70.50;;;;;;6724927;88;20742;-81
2022/05/10 10:55:18;;;;;;;4.32;2.92;;;28.10;72.10;;;;;;6725107;88;20210;-79
2022/05/10 11:05:36;;;;;;;3.75;2.30;;;29.20;70.20;;;;;;6724717;88;20435;-79
2022/05/10 11:15:59;;;;;;;3.50;2.55;;;29.20;68.50;;;;;;6722324;88;20628;-80
2022/05/10 11:26:24;;;;;;;3.70;2.30;;;30.50;66.80;;;;;;6720627;88;20572;-78
2022/05/10 11:36:44;;;;;;;4.55;2.50;;;29.80;67.60;;;;;;6634456;88;20206;-79
2022/05/10 11:47:12;;;;;;;3.87;2.53;;;29.60;65.80;;;;;;6703459;88;20240;-80
2022/05/10 11:57:15;;;;;;;5.03;2.50;;;29.40;67.10;;;;;;6704106;88;20696;-80
2022/05/10 12:07:19;;;;;;;5.53;2.60;;;28.30;66.20;;;;;;6703181;88;20193;-78
2022/05/10 12:27:57;;;;;;;4.93;2.70;;;27.60;68.40;;;;;;6701575;88;20185;-78
2022/05/10 12:38:00;;;;;;;3.75;2.50;;;27.60;68.30;;;;;;6701654;88;20205;-78
2022/05/10 12:48:19;;;;;;;;;;;27.60;67.50;;;;;;6683684;88;20322;-78
2022/05/10 12:58:25;;;;;;;3.72;2.80;;;27.90;67.30;;;;;;6698626;88;20468;-79
2022/05/10 13:08:50;;;;;;;4.43;2.62;;;28.40;67.20;;;;;;6719263;88;20664;-78
2022/05/10 13:18:53;;;;;;;3.83;2.40;;;28.20;67.20;;;;;;6718007;88;20232;-79
2022/05/10 13:29:00;;;;;;;3.90;2.40;;;28.90;64.90;;;;;;6704688;88;20183;-78
2022/05/10 13:39:01;;;;;;;3.72;2.37;;;29.10;64.00;;;;;;6704194;88;20760;-79
2022/05/10 13:49:06;;;;;;;4.50;2.10;;;29.00;62.40;;;;;;6703862;88;20377;-79
2022/05/10 13:59:10;;;;;;;4.37;2.60;;;29.60;62.90;;;;;;6703890;88;20218;-79
2022/05/10 14:09:13;;;;;;;2.67;2.00;;;30.20;63.30;;;;;;6702855;88;20195;-79
2022/05/10 14:29:25;;;;;;;3.08;2.42;;;28.90;62.50;;;;;;6751371;88;20216;-82
2022/05/10 14:39:30;;;;;;;2.78;2.30;;;28.70;62.90;;;;;;6714322;88;20185;-82
2022/05/10 14:49:38;;;;;;;5.05;2.20;;;28.10;62.80;;;;;;6627811;88;20299;-82
2022/05/10 14:59:51;;;;;;;4.97;2.33;;;27.90;62.20;;;;;;6627544;88;20240;-81
2022/05/10 15:09:53;;;;;;;2.75;2.17;;;27.60;63.10;;;;;;6710941;88;20159;-81
2022/05/10 15:19:53;;;;;;;3.87;2.25;;;27.40;62.20;;;;;;6696648;88;20512;-81
2022/05/10 15:29:54;;;;;;;3.65;2.10;;;27.50;62.60;;;;;;6687315;89;21508;-80
2022/05/10 15:39:55;;;;;;;3.92;2.10;;;27.90;62.30;;;;;;6641700;88;20205;-82
2022/05/10 15:49:57;;;;;;;3.55;2.28;;;27.60;62.00;;;;;;6667923;88;20164;-81
2022/05/10 15:59:58;;;;;;;4.47;2.25;;;27.40;63.50;;;;;;6672050;88;20624;-81
2022/05/10 16:09:58;;;;;;;3.30;2.40;;;27.80;63.50;;;;;;6662189;89;20200;-81
2022/05/10 16:20:00;;;;;;;4.03;2.40;;;28.00;64.20;;;;;;6663471;89;20183;-83
2022/05/10 16:30:01;;;;;;;4.60;2.30;;;28.30;64.40;;;;;;6669843;88;20562;-82
2022/05/10 16:40:03;;;;;;;5.37;2.58;;;27.40;64.20;;;;;;6670243;88;20781;-82
2022/05/10 16:50:08;;;;;;;4.93;2.50;;;27.20;64.60;;;;;;6672150;88;20568;-82
2022/05/10 17:00:13;;;;;;;15.88;7.43;;;27.50;65.30;;;;;;6644931;88;20223;-79
2022/05/10 17:10:21;;;;;;;8.80;5.05;;;26.70;65.60;;;;;;6639353;89;20176;-79
2022/05/10 17:20:22;;;;;;;6.95;3.47;;;26.30;66.20;;;;;;6639975;88;20349;-79
2022/05/10 17:30:24;;;;;;;5.18;2.50;;;26.40;66.30;;;;;;6646551;88;20335;-79
2022/05/10 17:40:24;;;;;;;3.42;2.62;;;26.60;66.60;;;;;;6639862;89;20218;-80
2022/05/10 17:50:25;;;;;;;3.92;2.35;;;26.00;67.80;;;;;;6643287;88;20707;-80
2022/05/10 18:00:26;;;;;;;4.97;2.72;;;25.80;68.10;;;;;;6645334;89;20192;-81
2022/05/10 18:10:28;;;;;;;4.35;2.42;;;25.50;68.90;;;;;;6647180;88;20262;-81
2022/05/10 18:20:28;;;;;;;5.25;2.60;;;25.30;71.80;;;;;;6644335;89;20255;-81
2022/05/10 18:30:29;;;;;;;5.50;2.70;;;24.90;70.60;;;;;;6655316;88;20700;-82
2022/05/10 18:40:30;;;;;;;4.63;2.63;;;24.70;70.60;;;;;;6659215;88;20197;-80
2022/05/10 18:50:30;;;;;;;3.95;2.70;;;24.50;71.10;;;;;;6658538;88;21377;-84
2022/05/10 19:00:31;;;;;;;5.05;2.70;;;24.20;71.60;;;;;;6676602;88;20914;-81
2022/05/10 19:10:33;;;;;;;4.18;2.70;;;24.10;72.20;;;;;;6656667;88;20241;-82
2022/05/10 19:20:34;;;;;;;5.12;2.70;;;23.80;73.00;;;;;;6658390;88;21073;-81
2022/05/10 19:30:35;;;;;;;4.15;3.10;;;23.80;73.40;;;;;;6659478;88;20349;-82
2022/05/10 19:40:35;;;;;;;6.65;3.10;;;23.40;74.30;;;;;;6677816;88;20156;-82
2022/05/10 19:50:36;;;;;;;5.22;3.17;;;23.30;74.90;;;;;;6660266;88;20199;-83
2022/05/10 20:00:36;;;;;;;7.10;2.90;;;23.30;75.30;;;;;;6660698;88;20181;-83
2022/05/10 20:10:44;;;;;;;5.20;2.85;;;23.20;76.00;;;;;;6713866;88;20194;-83
2022/05/10 20:20:45;;;;;;;5.32;3.30;;;23.00;77.00;;;;;;6727558;88;21063;-81
2022/05/10 20:30:48;;;;;;;5.50;3.00;;;22.90;77.30;;;;;;6714197;88;20197;-84
2022/05/10 20:40:49;;;;;;;3.58;2.90;;;22.50;78.20;;;;;;6710943;88;20278;-83
2022/05/10 20:50:50;;;;;;;4.35;3.10;;;22.40;78.80;;;;;;6697598;89;20174;-84
2022/05/10 21:00:51;;;;;;;4.37;3.03;;;22.50;79.00;;;;;;6651923;89;20325;-84
2022/05/10 21:10:51;;;;;;;6.28;3.15;;;22.40;79.60;;;;;;6611484;89;20259;-83
2022/05/10 21:20:53;;;;;;;5.37;3.00;;;22.40;79.40;;;;;;6698035;88;20203;-84
2022/05/10 21:31:35;;;;;;;4.18;3.05;;;22.20;79.90;;;;;;6680118;78;20270;-82
2022/05/10 21:41:35;;;;;;;7.00;3.05;;;22.20;80.50;;;;;;6737370;78;20193;-85
2022/05/10 22:02:00;;;;;;;6.12;3.72;;;21.60;83.80;;;;;;4065771;77;20630;-83
2022/05/10 23:12:22;;;;;;;7.07;3.83;;;20.60;92.30;;;;;;7484798;78;20224;-87
